KOPF/OPF METAR and TAF weather

Enter ICAO airport designator
Station Type Date Time Source
KOPF METAR 2021/05/13 04:53 UTC NOAA

KOPF 130453Z AUTO 16004KT 10SM CLR 23/21 A3006 RMK AO2 SLP179 T02330211 403330228


Station Type Date Time Source
KOPF Decoded METAR 2021/05/13 04:53 UTC NOAA

MIAMI OPA LOCKA AIRPORT, FL, United States (KOPF) 25-54N 80-17W 16M
May 13, 2021 - 12:53 AM EDT / 2021.05.13 0453 UTC
Wind: from the SSE (160 degrees) at 5 MPH (4 KT):0
Visibility: 10 mile(s):0
Sky conditions: clear
Temperature: 73.9 F (23.3 C)
Dew Point: 70.0 F (21.1 C)
Relative Humidity: 87%
Pressure (altimeter): 30.06 in. Hg (1017 hPa)
ob: KOPF 130453Z AUTO 16004KT 10SM CLR 23/21 A3006 RMK AO2 SLP179 T02330211 403330228
cycle: 5

Station Type Date Time Source
KOPF TAF 2021/05/13 03:39 UTC NOAA

TAF
AMD KOPF 130237Z 1303/1324 31009KT P6SM VCTS BKN035CB
TEMPO 1303/1305 5SM -TSRA SCT025CB BKN030
FM130500 VRB03KT P6SM SCT030 SCT250
FM131600 11010KT P6SM VCSH SCT030 BKN050
FM132000 04010KT P6SM VCSH SCT030 BKN045

Example: see airport list